sensor_id;sensor_type;location;lat;lon;timestamp;pressure;altitude;pressure_sealevel;temperature;humidity
65534;BME280;53640;55.838;37.184;2022-10-19T00:01:07;98559.81;;;7.89;68.27
65534;BME280;53640;55.838;37.184;2022-10-19T00:03:35;98559.44;;;7.86;68.50
65534;BME280;53640;55.838;37.184;2022-10-19T00:06:32;98549.69;;;7.85;68.41
65534;BME280;53640;55.838;37.184;2022-10-19T00:09:03;98543.50;;;7.84;68.62
65534;BME280;53640;55.838;37.184;2022-10-19T00:11:30;98539.97;;;7.84;68.79
65534;BME280;53640;55.838;37.184;2022-10-19T00:13:58;98529.41;;;7.82;69.01
65534;BME280;53640;55.838;37.184;2022-10-19T00:16:29;98501.53;;;7.70;69.28
65534;BME280;53640;55.838;37.184;2022-10-19T00:18:57;98508.38;;;7.73;69.16
65534;BME280;53640;55.838;37.184;2022-10-19T00:21:24;98517.16;;;7.86;69.24
65534;BME280;53640;55.838;37.184;2022-10-19T00:23:51;98517.81;;;7.82;69.33
65534;BME280;53640;55.838;37.184;2022-10-19T00:26:17;98517.38;;;7.85;69.56
65534;BME280;53640;55.838;37.184;2022-10-19T00:28:44;98497.75;;;7.78;69.30
65534;BME280;53640;55.838;37.184;2022-10-19T00:31:13;98475.03;;;7.67;69.41
65534;BME280;53640;55.838;37.184;2022-10-19T00:33:39;98460.66;;;7.55;69.71
65534;BME280;53640;55.838;37.184;2022-10-19T00:36:17;98463.13;;;7.56;69.29
65534;BME280;53640;55.838;37.184;2022-10-19T00:39:10;98510.72;;;7.87;69.41
65534;BME280;53640;55.838;37.184;2022-10-19T00:41:39;98475.88;;;7.68;69.43
65534;BME280;53640;55.838;37.184;2022-10-19T00:47:01;98501.19;;;7.85;69.64
65534;BME280;53640;55.838;37.184;2022-10-19T00:49:32;98492.34;;;7.78;69.49
65534;BME280;53640;55.838;37.184;2022-10-19T00:52:08;98470.94;;;7.64;69.86
65534;BME280;53640;55.838;37.184;2022-10-19T00:54:37;98460.53;;;7.68;69.61
65534;BME280;53640;55.838;37.184;2022-10-19T00:57:06;98478.69;;;7.79;69.54
65534;BME280;53640;55.838;37.184;2022-10-19T00:59:33;98480.56;;;7.79;69.34
65534;BME280;53640;55.838;37.184;2022-10-19T01:02:02;98495.13;;;7.89;69.45
65534;BME280;53640;55.838;37.184;2022-10-19T01:04:29;98491.03;;;7.87;69.42
65534;BME280;53640;55.838;37.184;2022-10-19T01:06:58;98479.94;;;7.77;69.78
65534;BME280;53640;55.838;37.184;2022-10-19T01:09:25;98455.78;;;7.63;69.59
65534;BME280;53640;55.838;37.184;2022-10-19T01:17:37;98465.22;;;7.79;69.55
65534;BME280;53640;55.838;37.184;2022-10-19T01:29:05;98483.53;;;7.89;69.92
65534;BME280;53640;55.838;37.184;2022-10-19T01:32:10;98484.38;;;7.89;70.03
65534;BME280;53640;55.838;37.184;2022-10-19T01:34:47;98459.88;;;7.73;69.93
65534;BME280;53640;55.838;37.184;2022-10-19T01:42:45;98469.78;;;7.79;69.97
65534;BME280;53640;55.838;37.184;2022-10-19T01:45:35;98460.97;;;7.90;69.74
65534;BME280;53640;55.838;37.184;2022-10-19T01:48:10;98451.88;;;7.84;69.34
65534;BME280;53640;55.838;37.184;2022-10-19T01:53:22;98440.88;;;7.86;69.30
65534;BME280;53640;55.838;37.184;2022-10-19T01:55:52;98424.72;;;7.68;68.76
65534;BME280;53640;55.838;37.184;2022-10-19T01:58:25;98429.25;;;7.67;68.75
65534;BME280;53640;55.838;37.184;2022-10-19T02:00:54;98437.06;;;7.75;68.75
65534;BME280;53640;55.838;37.184;2022-10-19T02:03:23;98448.03;;;7.74;69.11
65534;BME280;53640;55.838;37.184;2022-10-19T02:05:50;98438.09;;;7.74;69.05
65534;BME280;53640;55.838;37.184;2022-10-19T02:08:57;98439.75;;;7.75;69.29
65534;BME280;53640;55.838;37.184;2022-10-19T02:11:22;98434.56;;;7.74;69.36
65534;BME280;53640;55.838;37.184;2022-10-19T02:13:56;98416.16;;;7.71;69.34
65534;BME280;53640;55.838;37.184;2022-10-19T02:16:28;98377.84;;;7.50;69.06
65534;BME280;53640;55.838;37.184;2022-10-19T02:18:56;98416.78;;;7.73;69.19
65534;BME280;53640;55.838;37.184;2022-10-19T02:21:25;98371.69;;;7.43;68.84
65534;BME280;53640;55.838;37.184;2022-10-19T02:23:51;98392.50;;;7.54;68.88
65534;BME280;53640;55.838;37.184;2022-10-19T02:26:18;98398.94;;;7.53;68.56
65534;BME280;53640;55.838;37.184;2022-10-19T02:28:45;98406.59;;;7.56;68.39
65534;BME280;53640;55.838;37.184;2022-10-19T02:31:12;98409.03;;;7.58;68.36
65534;BME280;53640;55.838;37.184;2022-10-19T02:33:39;98410.31;;;7.55;68.26
65534;BME280;53640;55.838;37.184;2022-10-19T02:36:06;98397.94;;;7.48;67.78
65534;BME280;53640;55.838;37.184;2022-10-19T02:38:32;98379.81;;;7.36;67.69
65534;BME280;53640;55.838;37.184;2022-10-19T02:41:07;98277.53;;;6.68;67.26
65534;BME280;53640;55.838;37.184;2022-10-19T02:43:37;98387.50;;;7.33;67.66
65534;BME280;53640;55.838;37.184;2022-10-19T02:46:17;98393.50;;;7.35;67.29
65534;BME280;53640;55.838;37.184;2022-10-19T02:48:45;98396.88;;;7.30;67.10
65534;BME280;53640;55.838;37.184;2022-10-19T02:51:30;98387.22;;;7.23;67.80
65534;BME280;53640;55.838;37.184;2022-10-19T02:53:56;98369.25;;;7.17;68.20
65534;BME280;53640;55.838;37.184;2022-10-19T02:56:24;98362.84;;;7.11;68.51
65534;BME280;53640;55.838;37.184;2022-10-19T02:58:52;98363.31;;;7.08;68.17
65534;BME280;53640;55.838;37.184;2022-10-19T03:01:23;98381.81;;;7.23;67.76
65534;BME280;53640;55.838;37.184;2022-10-19T03:03:51;98355.50;;;7.00;68.27
65534;BME280;53640;55.838;37.184;2022-10-19T03:06:17;98342.56;;;6.90;68.50
65534;BME280;53640;55.838;37.184;2022-10-19T03:08:44;98368.84;;;7.13;68.89
65534;BME280;53640;55.838;37.184;2022-10-19T03:11:10;98277.06;;;6.46;69.01
65534;BME280;53640;55.838;37.184;2022-10-19T03:13:36;98328.53;;;6.81;68.24
65534;BME280;53640;55.838;37.184;2022-10-19T03:16:07;98295.75;;;6.66;68.57
65534;BME280;53640;55.838;37.184;2022-10-19T03:18:34;98306.00;;;6.76;68.99
65534;BME280;53640;55.838;37.184;2022-10-19T03:21:06;98294.47;;;6.68;69.18
65534;BME280;53640;55.838;37.184;2022-10-19T03:23:33;98298.56;;;6.78;69.01
65534;BME280;53640;55.838;37.184;2022-10-19T03:26:00;98247.69;;;6.51;68.80
65534;BME280;53640;55.838;37.184;2022-10-19T03:28:27;98297.88;;;6.82;68.50
65534;BME280;53640;55.838;37.184;2022-10-19T03:30:53;98340.50;;;7.10;68.53
65534;BME280;53640;55.838;37.184;2022-10-19T03:33:19;98322.56;;;7.04;68.88
65534;BME280;53640;55.838;37.184;2022-10-19T03:35:46;98315.13;;;7.00;69.19
65534;BME280;53640;55.838;37.184;2022-10-19T03:38:13;98323.97;;;7.07;68.62
65534;BME280;53640;55.838;37.184;2022-10-19T03:40:39;98345.16;;;7.22;68.14
65534;BME280;53640;55.838;37.184;2022-10-19T03:43:05;98305.28;;;6.94;68.08
65534;BME280;53640;55.838;37.184;2022-10-19T03:45:32;98331.84;;;7.08;68.18
65534;BME280;53640;55.838;37.184;2022-10-19T03:47:58;98307.53;;;6.97;68.29
65534;BME280;53640;55.838;37.184;2022-10-19T03:50:24;98302.78;;;6.92;68.10
65534;BME280;53640;55.838;37.184;2022-10-19T03:52:50;98269.22;;;6.70;68.07
65534;BME280;53640;55.838;37.184;2022-10-19T03:55:17;98294.56;;;6.87;67.72
65534;BME280;53640;55.838;37.184;2022-10-19T03:57:43;98320.75;;;6.98;67.68
65534;BME280;53640;55.838;37.184;2022-10-19T04:00:10;98327.56;;;7.01;67.66
65534;BME280;53640;55.838;37.184;2022-10-19T04:02:40;98247.44;;;6.53;67.86
65534;BME280;53640;55.838;37.184;2022-10-19T04:05:07;98245.03;;;6.45;67.47
65534;BME280;53640;55.838;37.184;2022-10-19T04:07:33;98197.28;;;6.15;67.32
65534;BME280;53640;55.838;37.184;2022-10-19T04:09:59;98238.03;;;6.43;67.23
65534;BME280;53640;55.838;37.184;2022-10-19T04:12:26;98199.34;;;6.13;67.79
65534;BME280;53640;55.838;37.184;2022-10-19T04:14:52;98192.38;;;6.05;67.44
65534;BME280;53640;55.838;37.184;2022-10-19T04:17:18;98204.53;;;6.14;66.87
65534;BME280;53640;55.838;37.184;2022-10-19T04:19:46;98248.00;;;6.36;67.46
65534;BME280;53640;55.838;37.184;2022-10-19T04:22:12;98237.47;;;6.28;67.81
65534;BME280;53640;55.838;37.184;2022-10-19T04:24:40;98181.53;;;5.93;67.44
65534;BME280;53640;55.838;37.184;2022-10-19T04:27:07;98233.19;;;6.21;67.06
65534;BME280;53640;55.838;37.184;2022-10-19T04:29:33;98195.34;;;5.97;67.11
65534;BME280;53640;55.838;37.184;2022-10-19T04:32:00;98159.13;;;5.75;66.74
65534;BME280;53640;55.838;37.184;2022-10-19T04:34:26;98218.22;;;6.06;67.22
65534;BME280;53640;55.838;37.184;2022-10-19T04:36:53;98256.69;;;6.32;67.12
65534;BME280;53640;55.838;37.184;2022-10-19T04:39:19;98268.41;;;6.44;67.66
65534;BME280;53640;55.838;37.184;2022-10-19T04:41:46;98268.78;;;6.48;67.12
65534;BME280;53640;55.838;37.184;2022-10-19T04:44:12;98227.81;;;6.21;66.91
65534;BME280;53640;55.838;37.184;2022-10-19T04:46:38;98260.78;;;6.41;67.17
65534;BME280;53640;55.838;37.184;2022-10-19T04:49:05;98284.66;;;6.56;67.44
65534;BME280;53640;55.838;37.184;2022-10-19T04:51:31;98235.03;;;6.27;67.73
65534;BME280;53640;55.838;37.184;2022-10-19T04:53:58;98229.06;;;6.25;67.78
65534;BME280;53640;55.838;37.184;2022-10-19T04:56:26;98281.31;;;6.60;68.01
65534;BME280;53640;55.838;37.184;2022-10-19T04:58:56;98256.19;;;6.48;68.00
65534;BME280;53640;55.838;37.184;2022-10-19T05:01:24;98274.06;;;6.61;67.87
65534;BME280;53640;55.838;37.184;2022-10-19T05:03:55;98273.06;;;6.55;67.50
65534;BME280;53640;55.838;37.184;2022-10-19T05:06:22;98278.38;;;6.62;67.75
65534;BME280;53640;55.838;37.184;2022-10-19T05:08:48;98275.09;;;6.60;67.57
65534;BME280;53640;55.838;37.184;2022-10-19T05:11:16;98192.78;;;6.09;67.62
65534;BME280;53640;55.838;37.184;2022-10-19T05:13:43;98232.88;;;6.35;67.68
65534;BME280;53640;55.838;37.184;2022-10-19T05:16:12;98196.47;;;6.14;67.18
65534;BME280;53640;55.838;37.184;2022-10-19T05:18:39;98215.81;;;6.23;67.12
65534;BME280;53640;55.838;37.184;2022-10-19T05:23:33;98266.88;;;6.55;67.44
65534;BME280;53640;55.838;37.184;2022-10-19T05:26:06;98261.88;;;6.58;67.48
65534;BME280;53640;55.838;37.184;2022-10-19T05:28:35;98264.56;;;6.58;67.56
65534;BME280;53640;55.838;37.184;2022-10-19T05:31:16;98207.72;;;6.30;68.23
65534;BME280;53640;55.838;37.184;2022-10-19T05:33:43;98221.88;;;6.43;68.69
65534;BME280;53640;55.838;37.184;2022-10-19T05:36:16;98221.88;;;6.43;68.43
65534;BME280;53640;55.838;37.184;2022-10-19T05:38:43;98265.94;;;6.67;68.67
65534;BME280;53640;55.838;37.184;2022-10-19T05:41:10;98267.59;;;6.68;68.73
65534;BME280;53640;55.838;37.184;2022-10-19T05:43:37;98203.78;;;6.32;68.90
65534;BME280;53640;55.838;37.184;2022-10-19T05:46:06;98191.38;;;6.31;68.48
65534;BME280;53640;55.838;37.184;2022-10-19T05:48:33;98205.16;;;6.41;68.69
65534;BME280;53640;55.838;37.184;2022-10-19T05:51:01;98206.78;;;6.42;67.25
65534;BME280;53640;55.838;37.184;2022-10-19T05:53:28;98224.97;;;6.47;66.67
65534;BME280;53640;55.838;37.184;2022-10-19T05:56:07;98175.41;;;6.11;66.35
65534;BME280;53640;55.838;37.184;2022-10-19T05:58:34;98140.44;;;5.86;66.06
65534;BME280;53640;55.838;37.184;2022-10-19T06:01:01;98130.16;;;5.83;66.23
65534;BME280;53640;55.838;37.184;2022-10-19T06:03:28;98136.00;;;5.74;65.66
65534;BME280;53640;55.838;37.184;2022-10-19T06:05:56;98153.72;;;5.81;66.66
65534;BME280;53640;55.838;37.184;2022-10-19T06:08:23;98162.31;;;5.90;65.30
65534;BME280;53640;55.838;37.184;2022-10-19T06:11:14;98144.53;;;5.64;66.30
65534;BME280;53640;55.838;37.184;2022-10-19T06:14:15;98181.13;;;5.90;66.09
65534;BME280;53640;55.838;37.184;2022-10-19T06:16:49;98209.97;;;6.01;65.98
65534;BME280;53640;55.838;37.184;2022-10-19T06:19:36;98158.53;;;5.73;66.96
65534;BME280;53640;55.838;37.184;2022-10-19T06:22:08;98110.56;;;5.44;66.93
65534;BME280;53640;55.838;37.184;2022-10-19T06:24:58;98124.47;;;5.66;67.93
65534;BME280;53640;55.838;37.184;2022-10-19T06:27:32;98114.41;;;5.62;67.89
65534;BME280;53640;55.838;37.184;2022-10-19T06:30:03;98131.44;;;5.74;67.89
65534;BME280;53640;55.838;37.184;2022-10-19T06:32:38;98194.16;;;6.18;66.70
65534;BME280;53640;55.838;37.184;2022-10-19T06:35:04;98117.63;;;5.70;67.29
65534;BME280;53640;55.838;37.184;2022-10-19T06:37:33;98165.59;;;5.99;66.47
65534;BME280;53640;55.838;37.184;2022-10-19T06:40:00;98114.00;;;5.58;66.31
65534;BME280;53640;55.838;37.184;2022-10-19T06:42:26;98123.66;;;5.66;67.25
65534;BME280;53640;55.838;37.184;2022-10-19T06:44:53;98212.97;;;6.18;66.80
65534;BME280;53640;55.838;37.184;2022-10-19T06:47:19;98134.03;;;5.56;66.48
65534;BME280;53640;55.838;37.184;2022-10-19T06:49:46;98256.09;;;6.30;67.33
65534;BME280;53640;55.838;37.184;2022-10-19T06:52:12;98198.41;;;6.01;67.93
65534;BME280;53640;55.838;37.184;2022-10-19T06:54:38;98176.56;;;5.90;68.57
65534;BME280;53640;55.838;37.184;2022-10-19T06:57:08;98125.72;;;5.64;68.41
65534;BME280;53640;55.838;37.184;2022-10-19T06:59:36;98238.50;;;6.34;68.63
65534;BME280;53640;55.838;37.184;2022-10-19T07:02:08;98178.00;;;5.93;67.00
65534;BME280;53640;55.838;37.184;2022-10-19T07:04:35;98174.25;;;6.01;68.19
65534;BME280;53640;55.838;37.184;2022-10-19T07:07:01;98146.28;;;5.83;68.11
65534;BME280;53640;55.838;37.184;2022-10-19T07:09:31;98108.81;;;5.63;68.42
65534;BME280;53640;55.838;37.184;2022-10-19T07:11:58;98202.00;;;6.19;67.98
65534;BME280;53640;55.838;37.184;2022-10-19T07:14:24;98213.09;;;6.30;68.00
65534;BME280;53640;55.838;37.184;2022-10-19T07:16:54;98227.03;;;6.45;68.15
65534;BME280;53640;55.838;37.184;2022-10-19T07:19:21;98155.25;;;6.02;68.12
65534;BME280;53640;55.838;37.184;2022-10-19T07:21:51;98229.69;;;6.52;68.47
65534;BME280;53640;55.838;37.184;2022-10-19T07:24:20;98148.81;;;6.03;68.43
65534;BME280;53640;55.838;37.184;2022-10-19T07:26:47;98130.47;;;5.93;68.34
65534;BME280;53640;55.838;37.184;2022-10-19T07:29:13;98153.09;;;6.11;68.73
65534;BME280;53640;55.838;37.184;2022-10-19T07:31:39;98116.47;;;5.91;68.67
65534;BME280;53640;55.838;37.184;2022-10-19T07:34:10;98153.06;;;6.17;68.65
65534;BME280;53640;55.838;37.184;2022-10-19T07:36:43;98078.38;;;5.76;68.49
65534;BME280;53640;55.838;37.184;2022-10-19T07:39:11;98166.09;;;6.39;68.48
65534;BME280;53640;55.838;37.184;2022-10-19T07:41:39;98107.13;;;5.94;68.42
65534;BME280;53640;55.838;37.184;2022-10-19T07:44:05;98156.88;;;6.28;68.17
65534;BME280;53640;55.838;37.184;2022-10-19T07:46:32;98127.88;;;6.12;67.87
65534;BME280;53640;55.838;37.184;2022-10-19T07:49:03;98194.66;;;6.58;67.57
65534;BME280;53640;55.838;37.184;2022-10-19T07:51:32;98101.13;;;5.99;67.51
65534;BME280;53640;55.838;37.184;2022-10-19T07:53:59;98131.56;;;6.17;68.10
65534;BME280;53640;55.838;37.184;2022-10-19T07:56:26;98141.41;;;6.24;68.37
65534;BME280;53640;55.838;37.184;2022-10-19T07:58:55;98173.50;;;6.43;68.31
65534;BME280;53640;55.838;37.184;2022-10-19T08:01:25;98212.31;;;6.73;68.45
65534;BME280;53640;55.838;37.184;2022-10-19T08:03:53;98196.03;;;6.67;68.76
65534;BME280;53640;55.838;37.184;2022-10-19T08:06:23;98183.69;;;6.60;68.76
65534;BME280;53640;55.838;37.184;2022-10-19T08:08:51;98212.03;;;6.81;68.61
65534;BME280;53640;55.838;37.184;2022-10-19T08:11:27;98140.91;;;6.33;68.41
65534;BME280;53640;55.838;37.184;2022-10-19T08:13:54;98226.25;;;6.88;67.85
65534;BME280;53640;55.838;37.184;2022-10-19T08:16:33;98178.91;;;6.62;68.17
65534;BME280;53640;55.838;37.184;2022-10-19T08:19:04;98203.22;;;6.74;67.94
65534;BME280;53640;55.838;37.184;2022-10-19T08:21:33;98217.38;;;6.87;67.57
65534;BME280;53640;55.838;37.184;2022-10-19T08:24:03;98202.16;;;6.75;67.14
65534;BME280;53640;55.838;37.184;2022-10-19T08:26:50;98143.22;;;6.30;67.07
65534;BME280;53640;55.838;37.184;2022-10-19T08:29:18;98220.72;;;6.83;67.77
65534;BME280;53640;55.838;37.184;2022-10-19T08:31:48;98185.31;;;6.61;67.62
65534;BME280;53640;55.838;37.184;2022-10-19T08:34:19;98164.94;;;6.53;67.27
65534;BME280;53640;55.838;37.184;2022-10-19T08:36:46;98097.78;;;6.03;66.47
65534;BME280;53640;55.838;37.184;2022-10-19T08:39:13;98126.34;;;6.23;67.46
65534;BME280;53640;55.838;37.184;2022-10-19T08:49:25;98223.56;;;6.88;67.92
65534;BME280;53640;55.838;37.184;2022-10-19T08:51:59;98221.88;;;6.94;67.81
65534;BME280;53640;55.838;37.184;2022-10-19T08:55:03;98230.91;;;6.99;67.27
65534;BME280;53640;55.838;37.184;2022-10-19T09:00:40;98238.53;;;7.02;67.83
65534;BME280;53640;55.838;37.184;2022-10-19T09:03:24;98243.94;;;7.02;67.46
65534;BME280;53640;55.838;37.184;2022-10-19T09:08:26;98213.28;;;6.85;67.36
65534;BME280;53640;55.838;37.184;2022-10-19T09:10:53;98215.31;;;6.83;67.22
65534;BME280;53640;55.838;37.184;2022-10-19T09:13:40;98237.50;;;7.03;67.23
65534;BME280;53640;55.838;37.184;2022-10-19T09:16:12;98163.06;;;6.54;66.68
65534;BME280;53640;55.838;37.184;2022-10-19T09:18:41;98196.47;;;6.64;66.82
65534;BME280;53640;55.838;37.184;2022-10-19T09:21:19;98103.09;;;6.10;66.70
65534;BME280;53640;55.838;37.184;2022-10-19T09:24:12;98198.44;;;6.76;66.87
65534;BME280;53640;55.838;37.184;2022-10-19T09:26:56;98150.34;;;6.42;66.57
65534;BME280;53640;55.838;37.184;2022-10-19T09:31:58;98209.41;;;6.74;66.60
65534;BME280;53640;55.838;37.184;2022-10-19T09:35:00;98243.16;;;6.95;66.25
65534;BME280;53640;55.838;37.184;2022-10-19T09:37:39;98120.81;;;6.17;66.62
65534;BME280;53640;55.838;37.184;2022-10-19T09:40:23;98175.34;;;6.43;66.92
65534;BME280;53640;55.838;37.184;2022-10-19T09:42:50;98117.50;;;6.15;66.51
65534;BME280;53640;55.838;37.184;2022-10-19T09:45:56;98137.22;;;6.28;66.80
65534;BME280;53640;55.838;37.184;2022-10-19T09:48:43;98102.25;;;6.09;67.02
65534;BME280;53640;55.838;37.184;2022-10-19T09:51:14;98109.09;;;6.05;66.89
65534;BME280;53640;55.838;37.184;2022-10-19T09:53:51;98096.56;;;5.99;67.28
65534;BME280;53640;55.838;37.184;2022-10-19T10:05:56;98233.94;;;6.84;67.31
65534;BME280;53640;55.838;37.184;2022-10-19T10:13:03;98233.38;;;6.76;66.72
65534;BME280;53640;55.838;37.184;2022-10-19T10:15:55;98097.06;;;5.89;67.13
65534;BME280;53640;55.838;37.184;2022-10-19T10:22:56;98173.59;;;6.30;67.40
65534;BME280;53640;55.838;37.184;2022-10-19T10:25:59;98146.00;;;6.16;66.93
65534;BME280;53640;55.838;37.184;2022-10-19T10:28:28;98086.59;;;5.81;66.89
65534;BME280;53640;55.838;37.184;2022-10-19T10:31:01;98102.81;;;5.93;66.19
65534;BME280;53640;55.838;37.184;2022-10-19T10:33:52;98152.59;;;6.21;67.31
65534;BME280;53640;55.838;37.184;2022-10-19T10:36:38;98086.34;;;5.83;66.78
65534;BME280;53640;55.838;37.184;2022-10-19T10:39:15;98177.59;;;6.46;66.99
65534;BME280;53640;55.838;37.184;2022-10-19T10:42:04;98221.75;;;6.82;66.99
65534;BME280;53640;55.838;37.184;2022-10-19T10:44:35;98221.94;;;6.87;67.69
65534;BME280;53640;55.838;37.184;2022-10-19T10:47:04;98168.81;;;6.57;67.10
65534;BME280;53640;55.838;37.184;2022-10-19T10:49:39;98168.38;;;6.60;66.67
65534;BME280;53640;55.838;37.184;2022-10-19T10:52:16;98154.41;;;6.52;65.51
65534;BME280;53640;55.838;37.184;2022-10-19T10:55:00;98164.25;;;6.58;65.27
65534;BME280;53640;55.838;37.184;2022-10-19T10:57:32;98104.06;;;6.15;65.41
65534;BME280;53640;55.838;37.184;2022-10-19T11:00:11;98209.31;;;6.87;65.88
65534;BME280;53640;55.838;37.184;2022-10-19T11:02:59;98199.75;;;6.91;65.64
65534;BME280;53640;55.838;37.184;2022-10-19T11:05:39;98156.81;;;6.60;65.71
65534;BME280;53640;55.838;37.184;2022-10-19T11:11:01;98205.31;;;6.97;65.66
65534;BME280;53640;55.838;37.184;2022-10-19T11:13:41;98115.78;;;6.46;64.51
65534;BME280;53640;55.838;37.184;2022-10-19T11:16:15;98195.41;;;6.90;64.73
65534;BME280;53640;55.838;37.184;2022-10-19T11:19:04;98211.06;;;7.00;65.61
65534;BME280;53640;55.838;37.184;2022-10-19T11:22:25;98208.19;;;6.95;66.40
65534;BME280;53640;55.838;37.184;2022-10-19T11:28:27;98222.47;;;7.14;66.71
65534;BME280;53640;55.838;37.184;2022-10-19T11:39:40;98115.09;;;6.51;64.82
65534;BME280;53640;55.838;37.184;2022-10-19T11:45:04;98074.91;;;6.19;65.91
65534;BME280;53640;55.838;37.184;2022-10-19T11:56:17;98159.41;;;6.91;66.20
65534;BME280;53640;55.838;37.184;2022-10-19T12:04:59;98063.88;;;6.27;64.19
65534;BME280;53640;55.838;37.184;2022-10-19T12:10:30;98208.22;;;7.13;64.76
65534;BME280;53640;55.838;37.184;2022-10-19T12:13:04;98079.78;;;6.29;63.68
65534;BME280;53640;55.838;37.184;2022-10-19T12:15:43;98078.06;;;6.34;64.28
65534;BME280;53640;55.838;37.184;2022-10-19T12:20:58;98091.28;;;6.36;64.54
65534;BME280;53640;55.838;37.184;2022-10-19T12:23:36;98180.53;;;6.88;64.81
65534;BME280;53640;55.838;37.184;2022-10-19T12:26:10;98120.84;;;6.54;64.56
65534;BME280;53640;55.838;37.184;2022-10-19T12:28:41;98212.53;;;7.14;64.66
65534;BME280;53640;55.838;37.184;2022-10-19T12:31:10;98099.50;;;6.41;63.13
65534;BME280;53640;55.838;37.184;2022-10-19T12:33:48;98148.06;;;6.64;63.73
65534;BME280;53640;55.838;37.184;2022-10-19T12:36:30;98197.72;;;6.87;63.87
65534;BME280;53640;55.838;37.184;2022-10-19T12:49:55;98171.28;;;6.59;64.13
65534;BME280;53640;55.838;37.184;2022-10-19T12:52:56;98108.41;;;6.16;64.42
65534;BME280;53640;55.838;37.184;2022-10-19T12:55:27;98154.16;;;6.53;64.90
65534;BME280;53640;55.838;37.184;2022-10-19T12:58:04;98173.91;;;6.65;65.66
65534;BME280;53640;55.838;37.184;2022-10-19T13:00:36;98123.31;;;6.37;65.94
65534;BME280;53640;55.838;37.184;2022-10-19T13:03:14;98194.66;;;6.83;66.38
65534;BME280;53640;55.838;37.184;2022-10-19T13:05:58;98094.63;;;6.31;66.37
65534;BME280;53640;55.838;37.184;2022-10-19T13:08:31;98242.31;;;7.20;66.10
65534;BME280;53640;55.838;37.184;2022-10-19T13:11:09;98110.94;;;6.36;65.82
65534;BME280;53640;55.838;37.184;2022-10-19T13:14:05;98233.78;;;7.23;65.55
65534;BME280;53640;55.838;37.184;2022-10-19T13:32:36;98256.34;;;7.22;65.46
65534;BME280;53640;55.838;37.184;2022-10-19T13:35:32;98258.03;;;7.23;65.57
65534;BME280;53640;55.838;37.184;2022-10-19T13:40:58;98184.22;;;6.68;65.01
65534;BME280;53640;55.838;37.184;2022-10-19T13:43:31;98176.16;;;6.68;64.94
65534;BME280;53640;55.838;37.184;2022-10-19T13:46:17;98143.28;;;6.48;64.06
65534;BME280;53640;55.838;37.184;2022-10-19T14:02:45;98249.75;;;6.99;64.50
65534;BME280;53640;55.838;37.184;2022-10-19T14:08:39;98215.72;;;6.61;63.41
65534;BME280;53640;55.838;37.184;2022-10-19T14:11:29;98184.06;;;6.38;64.29
65534;BME280;53640;55.838;37.184;2022-10-19T14:14:12;98152.66;;;6.14;63.81
65534;BME280;53640;55.838;37.184;2022-10-19T14:16:49;98218.09;;;6.51;63.70
65534;BME280;53640;55.838;37.184;2022-10-19T14:19:30;98123.53;;;5.86;63.74
65534;BME280;53640;55.838;37.184;2022-10-19T14:22:23;98189.56;;;6.25;64.34
65534;BME280;53640;55.838;37.184;2022-10-19T14:25:03;98134.22;;;5.92;64.03
65534;BME280;53640;55.838;37.184;2022-10-19T14:27:32;98204.16;;;6.36;64.16
65534;BME280;53640;55.838;37.184;2022-10-19T14:30:00;98163.03;;;6.10;63.90
65534;BME280;53640;55.838;37.184;2022-10-19T14:32:31;98214.66;;;6.44;63.84
65534;BME280;53640;55.838;37.184;2022-10-19T14:35:35;98168.41;;;6.10;63.89
65534;BME280;53640;55.838;37.184;2022-10-19T14:38:04;98149.88;;;6.02;63.66
65534;BME280;53640;55.838;37.184;2022-10-19T14:40:33;98189.97;;;6.29;63.35
65534;BME280;53640;55.838;37.184;2022-10-19T14:43:25;98266.72;;;6.75;63.62
65534;BME280;53640;55.838;37.184;2022-10-19T14:48:41;98137.56;;;5.88;63.50
65534;BME280;53640;55.838;37.184;2022-10-19T14:54:09;98184.91;;;6.14;63.15
65534;BME280;53640;55.838;37.184;2022-10-19T14:59:46;98280.44;;;6.66;62.96
65534;BME280;53640;55.838;37.184;2022-10-19T15:02:25;98287.06;;;6.64;62.53
65534;BME280;53640;55.838;37.184;2022-10-19T15:04:58;98212.63;;;6.08;62.12
65534;BME280;53640;55.838;37.184;2022-10-19T15:07:45;98253.59;;;6.28;61.62
65534;BME280;53640;55.838;37.184;2022-10-19T15:10:29;98290.03;;;6.56;62.76
65534;BME280;53640;55.838;37.184;2022-10-19T15:13:05;98249.50;;;6.26;62.90
65534;BME280;53640;55.838;37.184;2022-10-19T15:15:50;98173.81;;;5.72;62.79
65534;BME280;53640;55.838;37.184;2022-10-19T15:19:12;98198.72;;;5.86;62.18
65534;BME280;53640;55.838;37.184;2022-10-19T15:26:01;98313.47;;;6.42;61.87
65534;BME280;53640;55.838;37.184;2022-10-19T15:28:35;98276.81;;;6.23;62.29
65534;BME280;53640;55.838;37.184;2022-10-19T15:31:12;98239.75;;;6.00;61.94
65534;BME280;53640;55.838;37.184;2022-10-19T15:33:50;98303.41;;;6.31;61.81
65534;BME280;53640;55.838;37.184;2022-10-19T15:36:18;98243.72;;;5.90;62.36
65534;BME280;53640;55.838;37.184;2022-10-19T15:39:07;98216.56;;;5.74;61.52
65534;BME280;53640;55.838;37.184;2022-10-19T15:41:37;98205.69;;;5.55;61.72
65534;BME280;53640;55.838;37.184;2022-10-19T15:44:29;98324.91;;;6.31;61.94
65534;BME280;53640;55.838;37.184;2022-10-19T15:47:19;98187.00;;;5.42;62.59
65534;BME280;53640;55.838;37.184;2022-10-19T15:49:59;98329.88;;;6.34;62.08
65534;BME280;53640;55.838;37.184;2022-10-19T15:52:32;98270.97;;;5.94;62.19
65534;BME280;53640;55.838;37.184;2022-10-19T15:54:59;98275.53;;;5.93;62.08
65534;BME280;53640;55.838;37.184;2022-10-19T15:57:27;98342.25;;;6.35;61.69
65534;BME280;53640;55.838;37.184;2022-10-19T15:59:56;98216.59;;;5.60;62.04
65534;BME280;53640;55.838;37.184;2022-10-19T16:02:50;98298.81;;;6.06;61.60
65534;BME280;53640;55.838;37.184;2022-10-19T16:05:17;98208.81;;;5.52;61.25
65534;BME280;53640;55.838;37.184;2022-10-19T16:07:44;98304.41;;;6.05;62.08
65534;BME280;53640;55.838;37.184;2022-10-19T16:10:17;98214.81;;;5.48;61.25
65534;BME280;53640;55.838;37.184;2022-10-19T16:12:47;98277.22;;;5.88;61.98